createdAt,value
2023-05-25T00:04:02.104Z,2.55
2023-05-25T00:09:25.870Z,2.40
2023-05-25T00:14:53.992Z,2.72
2023-05-25T00:20:20.951Z,2.70
2023-05-25T00:25:51.912Z,2.83
2023-05-25T00:31:19.947Z,2.37
2023-05-25T00:36:37.922Z,2.60
2023-05-25T00:42:04.925Z,2.25
2023-05-25T00:47:32.885Z,2.80
2023-05-25T00:52:56.894Z,3.03
2023-05-25T00:58:26.930Z,2.80
2023-05-25T01:03:59.973Z,3.00
2023-05-25T01:09:28.913Z,2.80
2023-05-25T01:14:55.971Z,3.08
2023-05-25T01:20:23.936Z,3.03
2023-05-25T01:26:01.917Z,2.60
2023-05-25T01:31:29.973Z,3.13
2023-05-25T01:36:55.944Z,2.50
2023-05-25T01:42:23.949Z,2.60
2023-05-25T01:47:56.997Z,2.40
2023-05-25T01:53:28.909Z,3.20
2023-05-25T01:58:59.901Z,3.63
2023-05-25T02:04:26.961Z,3.60
2023-05-25T02:09:50.942Z,3.40
2023-05-25T02:15:25.968Z,4.07
2023-05-25T02:20:50.977Z,3.80
2023-05-25T02:26:15.967Z,3.22
2023-05-25T02:31:44.036Z,2.90
2023-05-25T02:37:08.063Z,2.95
2023-05-25T02:42:32.959Z,2.88
2023-05-25T02:48:00.062Z,3.20
2023-05-25T02:53:25.988Z,2.92
2023-05-25T02:58:52.999Z,2.97
2023-05-25T03:04:25.965Z,2.95
2023-05-25T03:09:49.980Z,2.95
2023-05-25T03:15:16.007Z,3.00
2023-05-25T03:20:44.006Z,3.00
2023-05-25T03:26:16.018Z,3.40
2023-05-25T03:31:42.078Z,2.95
2023-05-25T03:37:10.038Z,3.40
2023-05-25T03:42:35.015Z,2.90
2023-05-25T03:47:59.109Z,3.67
2023-05-25T03:53:27.005Z,3.47
2023-05-25T03:58:51.009Z,4.28
2023-05-25T04:04:16.100Z,3.75
2023-05-25T04:09:43.004Z,4.50
2023-05-25T04:15:08.028Z,3.78
2023-05-25T04:20:48.055Z,3.72
2023-05-25T04:26:23.012Z,3.42
2023-05-25T04:31:48.019Z,3.42
2023-05-25T04:37:34.075Z,3.83
2023-05-25T04:43:03.014Z,3.58
2023-05-25T04:48:27.994Z,3.63
2023-05-25T04:53:53.026Z,3.42
2023-05-25T04:59:21.051Z,3.40
2023-05-25T05:04:48.065Z,3.50
2023-05-25T05:10:14.054Z,3.50
2023-05-25T05:15:48.052Z,3.33
2023-05-25T05:21:13.013Z,3.20
2023-05-25T05:26:48.254Z,3.45
2023-05-25T05:32:31.040Z,3.10
2023-05-25T05:37:56.032Z,3.63
2023-05-25T05:43:21.051Z,3.60
2023-05-25T05:48:49.060Z,3.00
2023-05-25T05:54:14.043Z,3.20
2023-05-25T05:59:39.036Z,3.50
2023-05-25T06:05:06.065Z,3.83
2023-05-25T06:10:33.095Z,3.08
2023-05-25T06:15:57.096Z,3.30
2023-05-25T06:21:25.081Z,3.33
2023-05-25T06:26:49.083Z,3.72
2023-05-25T06:32:17.094Z,3.55
2023-05-25T06:37:46.122Z,4.10
2023-05-25T06:43:11.066Z,3.80
2023-05-25T06:48:45.227Z,3.83
2023-05-25T06:54:15.092Z,3.70
2023-05-25T06:59:39.093Z,4.00
2023-05-25T07:05:04.104Z,4.57
2023-05-25T07:10:31.095Z,4.50
2023-05-25T07:15:56.143Z,4.50
2023-05-25T07:21:21.109Z,4.80
2023-05-25T07:26:51.121Z,5.13
2023-05-25T07:32:15.130Z,5.72
2023-05-25T07:37:40.101Z,4.88
2023-05-25T07:43:08.593Z,5.22
2023-05-25T07:48:34.097Z,5.60
2023-05-25T07:53:59.124Z,5.60
2023-05-25T07:59:27.207Z,6.10
2023-05-25T08:04:51.128Z,5.95
2023-05-25T08:10:18.113Z,5.75
2023-05-25T08:15:45.325Z,5.10
2023-05-25T08:21:10.120Z,5.30
2023-05-25T08:26:53.779Z,5.68
2023-05-25T08:32:22.188Z,5.35
2023-05-25T08:37:50.146Z,5.75
2023-05-25T08:43:15.116Z,5.60
2023-05-25T08:48:45.200Z,5.07
2023-05-25T08:54:15.131Z,4.47
2023-05-25T08:59:58.140Z,4.25
2023-05-25T09:05:26.136Z,4.60
2023-05-25T09:10:52.126Z,4.60
2023-05-25T09:16:18.259Z,4.28
2023-05-25T09:21:45.129Z,3.92
2023-05-25T09:27:10.176Z,3.90
2023-05-25T09:32:35.180Z,3.60
2023-05-25T09:38:04.369Z,3.67
2023-05-25T09:43:41.348Z,2.63
2023-05-25T09:49:10.181Z,3.60
2023-05-25T09:54:38.157Z,2.90
2023-05-25T10:00:04.188Z,2.80
2023-05-25T10:05:31.161Z,2.80
2023-05-25T10:10:59.183Z,3.05
2023-05-25T10:16:27.325Z,3.20
2023-05-25T10:21:56.226Z,2.72
2023-05-25T10:27:27.740Z,2.72
2023-05-25T10:32:56.245Z,2.33
2023-05-25T10:38:21.204Z,2.28
2023-05-25T10:43:50.213Z,2.25
2023-05-25T10:49:14.241Z,2.40
2023-05-25T10:54:40.224Z,2.55
2023-05-25T11:00:13.273Z,2.50
2023-05-25T11:05:43.289Z,2.15
2023-05-25T11:11:08.232Z,2.28
2023-05-25T11:16:44.341Z,2.38
2023-05-25T11:22:09.223Z,2.50
2023-05-25T11:27:36.278Z,2.47
2023-05-25T11:33:07.267Z,2.80
2023-05-25T11:38:35.226Z,2.30
2023-05-25T11:44:01.277Z,2.28
2023-05-25T11:49:31.262Z,2.25
2023-05-25T11:54:56.257Z,2.20
2023-05-25T12:00:23.243Z,2.03
2023-05-25T12:05:59.288Z,2.22
2023-05-25T12:11:25.241Z,2.20
2023-05-25T12:16:51.293Z,2.35
2023-05-25T12:22:19.290Z,2.13
2023-05-25T12:27:44.252Z,2.20
2023-05-25T12:33:11.316Z,2.08
2023-05-25T12:38:38.269Z,1.90
2023-05-25T12:44:03.322Z,2.25
2023-05-25T12:49:39.274Z,2.00
2023-05-25T12:55:07.267Z,2.25
2023-05-25T13:00:32.300Z,2.00
2023-05-25T13:05:58.336Z,2.05
2023-05-25T13:11:25.307Z,2.33
2023-05-25T13:16:50.324Z,2.30
2023-05-25T13:22:14.278Z,2.30
2023-05-25T13:27:43.303Z,2.20
2023-05-25T13:33:08.336Z,1.98
2023-05-25T13:38:34.346Z,1.90
2023-05-25T13:44:01.326Z,1.80
2023-05-25T13:49:26.550Z,2.10
2023-05-25T13:54:50.324Z,2.20
2023-05-25T14:00:19.347Z,1.98
2023-05-25T14:05:43.563Z,1.90
2023-05-25T14:11:08.356Z,2.03
2023-05-25T14:16:35.391Z,1.77
2023-05-25T14:22:12.594Z,1.80
2023-05-25T14:27:38.327Z,1.70
2023-05-25T14:33:06.435Z,1.80
2023-05-25T14:38:31.359Z,1.95
2023-05-25T14:43:56.349Z,1.85
2023-05-25T14:49:24.350Z,1.70
2023-05-25T14:54:51.373Z,1.90
2023-05-25T15:00:15.407Z,2.13
2023-05-25T15:05:43.613Z,2.20
2023-05-25T15:11:07.362Z,1.85
2023-05-25T15:16:32.479Z,2.08
2023-05-25T15:21:59.415Z,1.83
2023-05-25T15:27:24.500Z,1.80
2023-05-25T15:32:48.467Z,1.98
2023-05-25T15:38:16.380Z,1.83
2023-05-25T15:43:40.451Z,2.00
2023-05-25T15:49:05.488Z,1.80
2023-05-25T15:54:32.413Z,1.90
2023-05-25T15:59:58.481Z,1.85
2023-05-25T16:05:23.417Z,1.98
2023-05-25T16:10:51.597Z,2.17
2023-05-25T16:16:16.467Z,2.20
2023-05-25T16:21:41.731Z,1.88
2023-05-25T16:27:09.491Z,1.88
2023-05-25T16:32:35.651Z,2.20
2023-05-25T16:37:59.431Z,1.80
2023-05-25T16:43:29.464Z,2.03
2023-05-25T16:48:53.448Z,2.13
2023-05-25T16:54:18.456Z,2.00
2023-05-25T16:59:46.589Z,2.00
2023-05-25T17:05:13.551Z,2.15
2023-05-25T17:10:37.447Z,2.30
2023-05-25T17:16:05.581Z,2.78
2023-05-25T17:21:31.484Z,2.25
2023-05-25T17:27:02.770Z,2.28
2023-05-25T17:32:30.531Z,2.55
2023-05-25T17:43:22.624Z,2.28
2023-05-25T17:48:49.513Z,2.50
2023-05-25T17:54:15.488Z,2.05
2023-05-25T17:59:45.583Z,2.35
2023-05-25T18:05:13.596Z,2.50
2023-05-25T18:10:37.503Z,2.42
2023-05-25T18:16:02.516Z,2.60
2023-05-25T18:21:29.578Z,2.55
2023-05-25T18:27:01.531Z,3.05
2023-05-25T18:32:27.535Z,3.03
2023-05-25T18:37:54.538Z,3.15
2023-05-25T18:43:19.531Z,3.00
2023-05-25T18:48:44.531Z,2.92
2023-05-25T18:54:12.516Z,3.10
2023-05-25T18:59:38.530Z,3.28
2023-05-25T19:05:03.546Z,3.20
2023-05-25T19:10:30.563Z,3.25
2023-05-25T19:15:55.606Z,3.40
2023-05-25T19:21:20.571Z,3.72
2023-05-25T19:26:54.556Z,3.42
2023-05-25T19:32:19.583Z,3.20
2023-05-25T19:37:44.569Z,3.30
2023-05-25T19:43:12.563Z,2.90
2023-05-25T19:48:36.597Z,3.22
2023-05-25T19:54:02.693Z,2.85
2023-05-25T19:59:34.544Z,2.78
2023-05-25T20:04:59.557Z,3.28
2023-05-25T20:10:24.594Z,2.83
2023-05-25T20:15:52.641Z,2.75
2023-05-25T20:21:16.612Z,2.78
2023-05-25T20:26:47.584Z,2.78
2023-05-25T20:32:17.580Z,2.92
2023-05-25T20:37:43.589Z,2.75
2023-05-25T20:43:09.655Z,3.05
2023-05-25T20:48:36.592Z,3.13
2023-05-25T20:54:01.623Z,2.90
2023-05-25T20:59:27.620Z,2.88
2023-05-25T21:04:55.667Z,2.72
2023-05-25T21:10:20.594Z,3.05
2023-05-25T21:15:45.779Z,2.90
2023-05-25T21:21:13.618Z,2.75
2023-05-25T21:26:45.629Z,2.50
2023-05-25T21:32:10.679Z,2.75
2023-05-25T21:37:37.630Z,3.17
2023-05-25T21:43:02.650Z,2.55
2023-05-25T21:48:27.624Z,2.72
2023-05-25T21:53:55.657Z,2.60
2023-05-25T21:59:19.633Z,2.85
2023-05-25T22:04:44.654Z,2.90
2023-05-25T22:10:11.644Z,2.80
2023-05-25T22:15:36.650Z,3.00
2023-05-25T22:21:00.742Z,2.63
2023-05-25T22:26:29.742Z,2.60
2023-05-25T22:31:54.659Z,3.00
2023-05-25T22:37:20.681Z,3.00
2023-05-25T22:42:47.636Z,2.95
2023-05-25T22:48:12.796Z,3.05
2023-05-25T22:53:36.674Z,2.50
2023-05-25T22:59:04.648Z,2.70
2023-05-25T23:04:28.722Z,2.72
2023-05-25T23:09:53.694Z,2.70
2023-05-25T23:15:21.700Z,2.47
2023-05-25T23:20:46.656Z,2.85
2023-05-25T23:26:10.684Z,3.10
2023-05-25T23:31:38.740Z,2.75
2023-05-25T23:37:06.332Z,2.80
2023-05-25T23:42:30.713Z,3.10
2023-05-25T23:47:58.731Z,2.80
2023-05-25T23:53:22.731Z,3.20
2023-05-25T23:58:49.679Z,2.72
